createdAt,value
2022-11-16T00:02:12.742Z,163.17
2022-11-16T00:04:42.992Z,204.33
2022-11-16T00:07:11.710Z,196.80
2022-11-16T00:09:39.906Z,187.77
2022-11-16T00:12:09.638Z,143.10
2022-11-16T00:14:37.825Z,162.87
2022-11-16T00:17:05.962Z,203.73
2022-11-16T00:19:34.204Z,195.03
2022-11-16T00:22:03.690Z,220.43
2022-11-16T00:24:31.866Z,269.50
2022-11-16T00:27:00.029Z,196.87
2022-11-16T00:29:28.669Z,145.57
2022-11-16T00:31:56.924Z,206.60
2022-11-16T00:34:25.858Z,169.87
2022-11-16T00:36:54.115Z,201.37
2022-11-16T00:39:23.884Z,232.20
2022-11-16T00:41:52.193Z,178.53
2022-11-16T00:44:20.546Z,171.03
2022-11-16T00:46:48.879Z,182.27
2022-11-16T00:49:17.815Z,218.37
2022-11-16T00:51:46.294Z,267.73
2022-11-16T00:54:14.548Z,251.47
2022-11-16T00:56:43.996Z,186.70
2022-11-16T00:59:13.008Z,191.27
2022-11-16T01:01:43.306Z,132.93
2022-11-16T01:04:11.459Z,144.17
2022-11-16T01:06:39.584Z,145.17
2022-11-16T01:09:07.744Z,163.90
2022-11-16T01:11:53.367Z,220.00
2022-11-16T01:14:22.903Z,147.97
2022-11-16T01:16:51.394Z,135.17
2022-11-16T01:19:21.508Z,206.93
2022-11-16T01:21:49.668Z,190.60
2022-11-16T01:24:17.791Z,183.47
2022-11-16T01:26:46.023Z,189.10
2022-11-16T01:29:14.296Z,194.40
2022-11-16T01:31:47.961Z,141.83
2022-11-16T01:34:16.169Z,177.33
2022-11-16T01:36:44.350Z,146.43
2022-11-16T01:39:13.874Z,153.90
2022-11-16T01:41:55.104Z,199.07
2022-11-16T01:45:02.370Z,138.50
2022-11-16T01:47:32.218Z,224.60
2022-11-16T01:50:07.162Z,183.00
2022-11-16T01:52:40.958Z,183.17
2022-11-16T01:55:09.841Z,183.83
2022-11-16T01:57:50.432Z,216.90
2022-11-16T02:00:19.307Z,222.40
2022-11-16T02:03:01.981Z,177.27
2022-11-16T02:06:03.737Z,189.50
2022-11-16T02:09:14.134Z,143.63
2022-11-16T02:12:03.694Z,173.03
2022-11-16T02:14:45.520Z,150.40
2022-11-16T02:17:25.370Z,150.93
2022-11-16T02:20:25.342Z,182.80
2022-11-16T02:23:13.682Z,245.77
2022-11-16T02:25:54.909Z,196.40
2022-11-16T02:28:34.301Z,163.40
2022-11-16T02:31:08.040Z,204.33
2022-11-16T02:33:39.997Z,164.90
2022-11-16T02:36:13.256Z,203.10
2022-11-16T02:38:48.830Z,189.03
2022-11-16T02:41:22.564Z,146.83
2022-11-16T02:43:56.410Z,178.33
2022-11-16T02:46:32.042Z,150.70
2022-11-16T02:49:04.096Z,169.30
2022-11-16T02:51:35.561Z,140.83
2022-11-16T02:54:05.847Z,196.57
2022-11-16T02:56:43.615Z,172.37
2022-11-16T02:59:16.579Z,147.90
2022-11-16T03:01:53.064Z,199.97
2022-11-16T03:04:27.918Z,165.90
2022-11-16T03:06:58.731Z,189.23
2022-11-16T03:09:31.824Z,172.27
2022-11-16T03:12:03.264Z,145.33
2022-11-16T03:14:39.774Z,164.53
2022-11-16T03:17:15.078Z,186.93
2022-11-16T03:19:50.057Z,189.40
2022-11-16T03:22:25.684Z,154.40
2022-11-16T03:24:54.406Z,204.97
2022-11-16T03:27:31.040Z,181.47
2022-11-16T03:30:05.804Z,226.80
2022-11-16T03:32:44.518Z,242.57
2022-11-16T03:35:18.852Z,225.10
2022-11-16T03:37:51.435Z,188.07
2022-11-16T03:40:21.150Z,197.80
2022-11-16T03:42:51.510Z,158.67
2022-11-16T03:45:20.919Z,202.50
2022-11-16T03:47:52.799Z,185.87
2022-11-16T03:50:22.306Z,201.37
2022-11-16T03:52:50.519Z,213.70
2022-11-16T03:55:19.784Z,185.30
2022-11-16T03:57:48.180Z,185.67
2022-11-16T04:00:17.080Z,251.87
2022-11-16T04:02:45.958Z,231.03
2022-11-16T04:05:40.367Z,191.70
2022-11-16T04:08:33.625Z,209.57
2022-11-16T04:11:19.710Z,246.77
2022-11-16T04:14:09.238Z,228.57
2022-11-16T04:16:56.752Z,224.90
2022-11-16T04:19:43.025Z,163.57
2022-11-16T04:22:34.648Z,225.87
2022-11-16T04:25:07.626Z,218.50
2022-11-16T04:27:54.685Z,219.33
2022-11-16T04:30:23.099Z,192.57
2022-11-16T04:33:09.393Z,156.30
2022-11-16T04:35:55.065Z,173.83
2022-11-16T04:38:24.646Z,179.53
2022-11-16T04:40:52.852Z,156.03
2022-11-16T04:43:20.910Z,132.53
2022-11-16T04:46:06.712Z,173.63
2022-11-16T04:48:40.455Z,163.17
2022-11-16T04:51:10.050Z,159.67
2022-11-16T04:53:40.999Z,165.73
2022-11-16T04:56:17.338Z,172.03
2022-11-16T04:58:45.870Z,165.37
2022-11-16T05:01:14.774Z,152.67
2022-11-16T05:03:43.705Z,150.60
2022-11-16T05:06:11.991Z,152.47
2022-11-16T05:08:41.695Z,152.73
2022-11-16T05:11:11.327Z,153.53
2022-11-16T05:13:39.451Z,157.13
2022-11-16T05:16:09.344Z,131.60
2022-11-16T05:18:37.479Z,144.33
2022-11-16T05:21:05.879Z,148.50
2022-11-16T05:23:55.872Z,142.47
2022-11-16T05:26:28.012Z,140.50
2022-11-16T05:28:56.655Z,152.83
2022-11-16T05:31:24.778Z,138.73
2022-11-16T05:33:53.867Z,160.83
2022-11-16T05:36:23.565Z,158.33
2022-11-16T05:38:56.057Z,155.30
2022-11-16T05:41:28.446Z,155.43
2022-11-16T05:44:00.280Z,152.23
2022-11-16T05:46:28.396Z,140.33
2022-11-16T05:48:59.659Z,139.67
2022-11-16T05:51:28.008Z,149.27
2022-11-16T05:53:57.324Z,133.37
2022-11-16T05:56:26.238Z,135.43
2022-11-16T05:58:57.619Z,135.07
2022-11-16T06:01:27.111Z,126.53
2022-11-16T06:03:55.271Z,146.23
2022-11-16T06:06:23.422Z,138.17
2022-11-16T06:08:53.083Z,133.77
2022-11-16T06:11:26.488Z,116.17
2022-11-16T06:13:57.764Z,120.33
2022-11-16T06:16:25.962Z,133.07
2022-11-16T06:18:54.140Z,120.90
2022-11-16T06:21:22.344Z,119.27
2022-11-16T06:23:50.526Z,132.60
2022-11-16T06:26:19.066Z,131.00
2022-11-16T06:28:48.282Z,123.77
2022-11-16T06:31:17.772Z,123.27
2022-11-16T06:33:46.716Z,124.93
2022-11-16T06:36:22.644Z,129.67
2022-11-16T06:38:51.301Z,120.80
2022-11-16T06:41:21.408Z,109.87
2022-11-16T06:43:51.595Z,116.73
2022-11-16T06:46:25.301Z,142.40
2022-11-16T06:48:54.365Z,122.83
2022-11-16T06:51:23.264Z,137.50
2022-11-16T06:53:51.665Z,109.80
2022-11-16T06:56:21.397Z,132.03
2022-11-16T06:58:56.676Z,123.33
2022-11-16T07:01:27.920Z,114.00
2022-11-16T07:04:01.548Z,121.13
2022-11-16T07:06:30.713Z,117.60
2022-11-16T07:08:59.456Z,123.20
2022-11-16T07:11:31.679Z,119.73
2022-11-16T07:14:00.722Z,118.27
2022-11-16T07:16:31.278Z,111.50
2022-11-16T07:19:03.135Z,119.07
2022-11-16T07:21:33.416Z,120.23
2022-11-16T07:24:05.712Z,113.20
2022-11-16T07:26:34.253Z,112.50
2022-11-16T07:29:08.695Z,124.93
2022-11-16T07:31:42.618Z,140.37
2022-11-16T07:34:33.679Z,145.63
2022-11-16T07:37:06.878Z,131.10
2022-11-16T07:39:35.076Z,124.40
2022-11-16T07:42:06.099Z,115.70
2022-11-16T07:44:51.432Z,111.80
2022-11-16T07:47:21.611Z,105.60
2022-11-16T07:49:50.127Z,89.50
2022-11-16T07:52:21.465Z,97.37
2022-11-16T07:55:07.543Z,100.93
2022-11-16T07:57:36.351Z,88.23
2022-11-16T08:00:09.281Z,97.90
2022-11-16T08:02:50.131Z,90.03
2022-11-16T08:05:21.127Z,88.33
2022-11-16T08:07:51.249Z,87.03
2022-11-16T08:10:23.268Z,83.80
2022-11-16T08:12:51.616Z,84.53
2022-11-16T08:15:21.288Z,86.97
2022-11-16T08:17:50.825Z,88.20
2022-11-16T08:20:19.268Z,69.90
2022-11-16T08:22:49.705Z,81.23
2022-11-16T08:25:18.269Z,81.87
2022-11-16T08:27:47.712Z,87.47
2022-11-16T08:30:18.409Z,84.13
2022-11-16T08:32:47.021Z,70.47
2022-11-16T08:35:18.164Z,78.17
2022-11-16T08:37:46.775Z,85.47
2022-11-16T08:40:16.512Z,71.13
2022-11-16T08:42:45.088Z,80.77
2022-11-16T08:45:14.138Z,81.67
2022-11-16T08:47:43.099Z,72.67
2022-11-16T08:50:11.394Z,88.03
2022-11-16T08:52:41.159Z,76.60
2022-11-16T08:55:10.274Z,81.23
2022-11-16T08:57:39.610Z,74.37
2022-11-16T09:00:13.122Z,77.13
2022-11-16T09:02:41.273Z,87.87
2022-11-16T09:05:11.916Z,80.07
2022-11-16T09:07:43.433Z,83.77
2022-11-16T09:10:11.856Z,77.43
2022-11-16T09:12:40.230Z,86.37
2022-11-16T09:15:09.604Z,86.60
2022-11-16T09:17:37.772Z,77.77
2022-11-16T09:20:07.000Z,79.93
2022-11-16T09:22:35.827Z,75.00
2022-11-16T09:25:06.260Z,81.57
2022-11-16T09:27:34.404Z,83.83
2022-11-16T09:30:02.646Z,79.57
2022-11-16T09:32:30.911Z,76.73
2022-11-16T09:34:59.045Z,82.70
2022-11-16T09:37:27.177Z,65.83
2022-11-16T09:39:57.736Z,76.13
2022-11-16T09:42:44.054Z,84.97
2022-11-16T09:45:20.417Z,72.00
2022-11-16T09:47:51.043Z,82.27
2022-11-16T09:50:32.564Z,81.87
2022-11-16T09:53:07.911Z,93.80
2022-11-16T09:55:40.758Z,70.17
2022-11-16T09:58:16.543Z,71.77
2022-11-16T10:00:52.301Z,90.03
2022-11-16T10:03:20.459Z,78.73
2022-11-16T10:05:55.888Z,81.80
2022-11-16T10:08:30.466Z,71.00
2022-11-16T10:11:10.816Z,72.83
2022-11-16T10:13:57.912Z,74.07
2022-11-16T10:16:38.036Z,68.57
2022-11-16T10:19:16.955Z,72.07
2022-11-16T10:21:53.417Z,62.50
2022-11-16T10:24:33.466Z,67.40
2022-11-16T10:27:22.175Z,66.80
2022-11-16T10:30:03.401Z,65.73
2022-11-16T10:32:33.834Z,73.57
2022-11-16T10:35:09.112Z,64.57
2022-11-16T10:37:40.169Z,60.50
2022-11-16T10:40:19.321Z,50.90
2022-11-16T10:42:52.471Z,59.53
2022-11-16T10:45:26.164Z,57.23
2022-11-16T10:48:01.470Z,56.10
2022-11-16T10:50:38.540Z,55.17
2022-11-16T10:53:06.756Z,61.77
2022-11-16T10:55:34.881Z,52.90
2022-11-16T10:58:05.092Z,58.13
2022-11-16T11:00:42.986Z,52.57
2022-11-16T11:03:12.104Z,53.80
2022-11-16T11:05:50.780Z,49.83
2022-11-16T11:08:27.340Z,46.23
2022-11-16T11:11:01.928Z,52.37
2022-11-16T11:13:30.464Z,40.87
2022-11-16T11:16:17.050Z,42.77
2022-11-16T11:18:45.240Z,42.17
2022-11-16T11:21:19.048Z,37.57
2022-11-16T11:23:50.768Z,42.23
2022-11-16T11:26:36.664Z,40.90
2022-11-16T11:29:17.697Z,38.57
2022-11-16T11:31:50.859Z,40.37
2022-11-16T11:34:22.623Z,36.40
2022-11-16T11:36:53.653Z,35.40
2022-11-16T11:39:33.578Z,40.37
2022-11-16T11:42:07.667Z,36.07
2022-11-16T11:44:49.193Z,35.03
2022-11-16T11:47:56.362Z,27.50
2022-11-16T11:50:20.622Z,29.70
2022-11-16T11:53:00.380Z,32.63
2022-11-16T11:55:28.862Z,31.70
2022-11-16T11:57:57.624Z,28.37
2022-11-16T12:00:27.025Z,27.30
2022-11-16T12:03:36.938Z,29.33
2022-11-16T12:06:20.368Z,25.40
2022-11-16T12:09:22.514Z,26.47
2022-11-16T12:12:08.175Z,25.40
2022-11-16T12:15:33.147Z,30.17
2022-11-16T12:18:13.994Z,26.20
2022-11-16T12:20:51.608Z,25.97
2022-11-16T12:23:36.499Z,23.50
2022-11-16T12:26:12.027Z,20.67
2022-11-16T12:28:52.835Z,25.70
2022-11-16T12:31:38.866Z,24.90
2022-11-16T12:34:16.991Z,22.47
2022-11-16T12:36:56.868Z,24.50
2022-11-16T12:39:28.345Z,24.80
2022-11-16T12:42:15.327Z,21.03
2022-11-16T12:45:04.048Z,22.97
2022-11-16T12:47:45.728Z,23.60
2022-11-16T12:50:37.934Z,22.07
2022-11-16T12:53:21.141Z,23.60
2022-11-16T12:55:56.102Z,22.00
2022-11-16T12:58:31.671Z,23.10
2022-11-16T13:01:11.809Z,24.13
2022-11-16T13:03:46.830Z,22.67
2022-11-16T13:06:21.662Z,25.50
2022-11-16T13:08:59.228Z,23.80
2022-11-16T13:11:32.956Z,22.13
2022-11-16T13:14:04.927Z,19.53
2022-11-16T13:16:33.350Z,20.03
2022-11-16T13:19:04.080Z,21.30
2022-11-16T13:21:41.927Z,18.90
2022-11-16T13:24:25.514Z,19.20
2022-11-16T13:27:05.443Z,21.57
2022-11-16T13:29:38.628Z,21.33
2022-11-16T13:32:14.176Z,18.33
2022-11-16T13:34:42.716Z,19.67
2022-11-16T13:37:49.438Z,21.80
2022-11-16T13:40:27.080Z,20.73
2022-11-16T13:43:17.600Z,18.17
2022-11-16T13:45:55.472Z,18.50
2022-11-16T13:48:28.784Z,18.53
2022-11-16T13:50:59.458Z,18.00
2022-11-16T13:54:37.867Z,15.67
2022-11-16T13:56:28.744Z,13.60
2022-11-16T13:58:59.457Z,15.00
2022-11-16T14:01:58.505Z,16.97
2022-11-16T14:04:58.220Z,11.87
2022-11-16T14:07:47.194Z,12.70
2022-11-16T14:11:03.044Z,14.00
2022-11-16T14:13:38.903Z,15.53
2022-11-16T14:16:32.701Z,16.03
2022-11-16T14:19:04.093Z,13.93
2022-11-16T14:21:48.632Z,17.87
2022-11-16T14:24:28.457Z,13.43
2022-11-16T14:27:07.999Z,12.43
2022-11-16T14:29:56.896Z,13.17
2022-11-16T14:32:28.437Z,12.40
2022-11-16T14:35:01.487Z,13.23
2022-11-16T14:37:37.095Z,13.40
2022-11-16T14:40:11.294Z,14.17
2022-11-16T14:43:15.230Z,11.33
2022-11-16T14:45:40.061Z,10.90
2022-11-16T14:48:17.872Z,11.60
2022-11-16T14:51:01.415Z,14.30
2022-11-16T14:53:31.379Z,12.53
2022-11-16T14:56:18.017Z,11.87
2022-11-16T14:58:54.284Z,10.50
2022-11-16T15:01:25.822Z,14.60
2022-11-16T15:03:58.040Z,14.63
2022-11-16T15:06:28.059Z,10.30
2022-11-16T15:09:00.093Z,15.07
2022-11-16T15:11:45.226Z,14.17
2022-11-16T15:14:18.835Z,16.67
2022-11-16T15:16:52.173Z,16.93
2022-11-16T15:19:21.185Z,19.97
2022-11-16T15:21:58.548Z,19.73
2022-11-16T15:24:31.456Z,15.07
2022-11-16T15:27:11.919Z,18.17
2022-11-16T15:29:40.180Z,18.20
2022-11-16T15:32:16.436Z,14.33
2022-11-16T15:34:48.650Z,16.63
2022-11-16T15:37:27.818Z,17.50
2022-11-16T15:39:57.324Z,18.30
2022-11-16T15:42:27.948Z,17.23
2022-11-16T15:44:57.040Z,15.27
2022-11-16T15:47:25.649Z,17.53
2022-11-16T15:49:55.289Z,16.03
2022-11-16T15:52:44.142Z,20.27
2022-11-16T15:55:32.039Z,16.87
2022-11-16T15:58:03.860Z,14.70
2022-11-16T16:00:34.762Z,16.57
2022-11-16T16:03:17.390Z,15.33
2022-11-16T16:05:45.535Z,18.00
2022-11-16T16:08:31.139Z,14.97
2022-11-16T16:11:09.735Z,13.63
2022-11-16T16:13:40.508Z,16.67
2022-11-16T16:16:26.057Z,15.10
2022-11-16T16:18:56.477Z,16.47
2022-11-16T16:21:26.122Z,12.70
2022-11-16T16:23:57.118Z,15.13
2022-11-16T16:26:25.283Z,15.40
2022-11-16T16:28:53.456Z,11.47
2022-11-16T16:31:21.620Z,10.30
2022-11-16T16:33:49.922Z,13.83
2022-11-16T16:36:18.034Z,9.53
2022-11-16T16:38:46.377Z,9.17
2022-11-16T16:41:24.227Z,9.47
2022-11-16T16:43:52.940Z,8.73
2022-11-16T16:46:21.763Z,8.27
2022-11-16T16:48:49.932Z,9.63
2022-11-16T16:51:18.024Z,10.93
2022-11-16T16:53:46.166Z,13.33
2022-11-16T16:56:16.259Z,10.43
2022-11-16T16:58:45.686Z,8.47
2022-11-16T17:01:14.105Z,9.47
2022-11-16T17:03:42.336Z,8.30
2022-11-16T17:06:10.519Z,8.40
2022-11-16T17:08:39.498Z,7.40
2022-11-16T17:11:07.653Z,7.30
2022-11-16T17:13:35.984Z,8.67
2022-11-16T17:16:07.068Z,6.97
2022-11-16T17:18:35.204Z,6.50
2022-11-16T17:21:07.824Z,7.40
2022-11-16T17:23:37.757Z,7.00
2022-11-16T17:26:07.039Z,6.50
2022-11-16T17:28:35.822Z,7.43
2022-11-16T17:31:07.055Z,7.53
2022-11-16T17:33:35.916Z,7.43
2022-11-16T17:36:05.364Z,8.10
2022-11-16T17:38:34.335Z,8.63
2022-11-16T17:41:06.843Z,8.27
2022-11-16T17:43:36.232Z,7.17
2022-11-16T17:46:07.864Z,6.77
2022-11-16T17:48:36.903Z,5.57
2022-11-16T17:51:05.704Z,6.93
2022-11-16T17:53:35.120Z,7.53
2022-11-16T17:56:04.499Z,5.63
2022-11-16T17:58:32.957Z,7.70
2022-11-16T18:01:01.360Z,5.13
2022-11-16T18:03:30.880Z,91.90
2022-11-16T18:06:04.416Z,6.30
2022-11-16T18:08:33.136Z,8.93
2022-11-16T18:11:05.529Z,6.63
2022-11-16T18:13:34.395Z,68.73
2022-11-16T18:16:04.363Z,10.17
2022-11-16T18:18:34.241Z,13.07
2022-11-16T18:21:02.411Z,12.57
2022-11-16T18:23:30.515Z,9.13
2022-11-16T18:25:58.618Z,11.87
2022-11-16T18:28:26.919Z,10.17
2022-11-16T18:31:03.277Z,15.83
2022-11-16T18:33:31.735Z,15.57
2022-11-16T18:36:01.565Z,8.20
2022-11-16T18:38:29.692Z,8.33
2022-11-16T18:41:06.101Z,8.50
2022-11-16T18:43:35.300Z,9.17
2022-11-16T18:46:04.021Z,27.80
2022-11-16T18:48:32.358Z,6.33
2022-11-16T18:51:02.917Z,13.10
2022-11-16T18:53:32.885Z,7.43
2022-11-16T18:56:01.386Z,9.70
2022-11-16T19:01:19.425Z,7.43
2022-11-16T19:03:47.660Z,6.73
2022-11-16T19:06:17.967Z,8.27
2022-11-16T19:08:55.013Z,7.67
2022-11-16T19:11:25.078Z,9.33
2022-11-16T19:13:55.029Z,7.20
2022-11-16T19:16:24.087Z,10.13
2022-11-16T19:18:52.223Z,10.80
2022-11-16T19:21:22.780Z,8.57
2022-11-16T19:23:52.666Z,8.47
2022-11-16T19:26:25.600Z,9.27
2022-11-16T19:28:54.534Z,7.97
2022-11-16T19:31:24.154Z,9.73
2022-11-16T19:33:55.047Z,7.50
2022-11-16T19:36:25.374Z,9.70
2022-11-16T19:38:54.077Z,8.00
2022-11-16T19:41:23.103Z,8.80
2022-11-16T19:43:56.931Z,11.70
2022-11-16T19:46:25.735Z,8.97
2022-11-16T19:48:54.305Z,10.70
2022-11-16T19:51:25.697Z,9.30
2022-11-16T19:53:54.552Z,9.57
2022-11-16T19:56:24.193Z,9.70
2022-11-16T19:58:52.869Z,8.03
2022-11-16T20:01:23.105Z,6.67
2022-11-16T20:03:51.423Z,9.00
2022-11-16T20:06:22.210Z,9.60
2022-11-16T20:08:53.124Z,9.93
2022-11-16T20:11:23.339Z,8.90
2022-11-16T20:13:53.015Z,14.80
2022-11-16T20:16:23.799Z,11.13
2022-11-16T20:18:53.250Z,9.20
2022-11-16T20:21:24.366Z,8.80
2022-11-16T20:23:55.550Z,8.90
2022-11-16T20:26:25.018Z,10.60
2022-11-16T20:28:54.482Z,10.03
2022-11-16T20:31:24.360Z,8.87
2022-11-16T20:33:54.194Z,8.07
2022-11-16T20:36:23.840Z,10.30
2022-11-16T20:38:53.897Z,10.53
2022-11-16T20:41:23.995Z,9.50
2022-11-16T20:43:53.827Z,8.70
2022-11-16T20:46:23.936Z,10.63
2022-11-16T20:48:52.789Z,8.97
2022-11-16T20:51:21.669Z,12.30
2022-11-16T20:53:50.884Z,9.00
2022-11-16T20:56:21.385Z,10.30
2022-11-16T20:58:50.476Z,10.37
2022-11-16T21:01:20.945Z,8.83
2022-11-16T21:03:49.175Z,8.53
2022-11-16T21:06:17.403Z,8.80
2022-11-16T21:08:46.027Z,9.23
2022-11-16T21:11:16.078Z,9.17
2022-11-16T21:14:05.028Z,9.80
2022-11-16T21:16:33.819Z,8.63
2022-11-16T21:19:02.819Z,12.73
2022-11-16T21:21:32.007Z,9.00
2022-11-16T21:24:00.603Z,9.23
2022-11-16T21:26:30.389Z,7.73
2022-11-16T21:29:01.088Z,9.60
2022-11-16T21:31:31.287Z,9.43
2022-11-16T21:34:00.736Z,8.63
2022-11-16T21:36:30.945Z,9.80
2022-11-16T21:38:59.549Z,9.73
2022-11-16T21:41:28.506Z,7.57
2022-11-16T21:43:56.994Z,9.33
2022-11-16T21:46:27.704Z,8.10
2022-11-16T21:48:57.128Z,10.70
2022-11-16T21:51:27.183Z,11.40
2022-11-16T21:53:56.023Z,9.03
2022-11-16T21:56:26.000Z,10.03
2022-11-16T21:58:54.878Z,10.90
2022-11-16T22:01:24.200Z,10.70
2022-11-16T22:04:07.740Z,10.47
2022-11-16T22:06:53.989Z,10.47
2022-11-16T22:09:22.349Z,8.53
2022-11-16T22:11:50.534Z,9.23
2022-11-16T22:14:18.930Z,10.73
2022-11-16T22:16:47.108Z,10.40
2022-11-16T22:19:16.615Z,11.00
2022-11-16T22:21:44.769Z,11.17
2022-11-16T22:24:12.891Z,12.53
2022-11-16T22:26:41.229Z,11.60
2022-11-16T22:29:09.352Z,10.50
2022-11-16T22:31:37.482Z,8.10
2022-11-16T22:34:05.615Z,9.30
2022-11-16T22:36:35.065Z,11.60
2022-11-16T22:39:03.235Z,11.70
2022-11-16T22:41:31.454Z,10.43
2022-11-16T22:43:59.654Z,10.20
2022-11-16T22:46:27.793Z,11.90
2022-11-16T22:48:55.931Z,12.37
2022-11-16T22:51:26.039Z,11.13
2022-11-16T22:53:56.413Z,11.20
2022-11-16T22:56:25.569Z,12.70
2022-11-16T22:58:54.326Z,14.80
2022-11-16T23:01:22.616Z,10.80
2022-11-16T23:03:51.429Z,10.53
2022-11-16T23:06:19.632Z,9.70
2022-11-16T23:08:48.666Z,9.67
2022-11-16T23:11:38.136Z,11.30
2022-11-16T23:14:25.892Z,13.40
2022-11-16T23:16:54.111Z,11.33
2022-11-16T23:19:40.829Z,10.63
2022-11-16T23:22:32.064Z,11.77
2022-11-16T23:25:18.076Z,12.37
2022-11-16T23:27:55.700Z,15.17
2022-11-16T23:30:24.239Z,11.10
2022-11-16T23:32:53.635Z,11.60
2022-11-16T23:35:21.854Z,12.67
2022-11-16T23:37:56.764Z,12.07
2022-11-16T23:40:26.998Z,11.00
2022-11-16T23:43:14.564Z,10.93
2022-11-16T23:45:43.478Z,11.03
2022-11-16T23:48:13.367Z,16.10
2022-11-16T23:50:42.076Z,11.63
2022-11-16T23:53:11.452Z,13.00
2022-11-16T23:55:40.915Z,13.33
2022-11-16T23:58:13.687Z,14.00
